createdAt,value
2023-10-05T00:03:00.332Z,101682.41
2023-10-05T00:07:01.842Z,101678.69
2023-10-05T00:11:07.619Z,101673.16
2023-10-05T00:15:09.475Z,101677.47
2023-10-05T00:19:13.580Z,101672.66
2023-10-05T00:23:15.261Z,101683.75
2023-10-05T00:27:16.704Z,101686.63
2023-10-05T00:31:27.399Z,101684.59
2023-10-05T00:35:30.412Z,101678.81
2023-10-05T00:39:32.259Z,101680.25
2023-10-05T00:43:33.682Z,101676.97
2023-10-05T00:47:35.914Z,101678.56
2023-10-05T00:51:37.849Z,101679.75
2023-10-05T00:55:40.915Z,101663.88
2023-10-05T00:59:45.521Z,101664.00
2023-10-05T01:04:07.292Z,101668.22
2023-10-05T01:08:16.451Z,101671.81
2023-10-05T01:12:20.978Z,101683.97
2023-10-05T01:16:23.239Z,101675.31
2023-10-05T01:20:26.160Z,101675.19
2023-10-05T01:24:28.779Z,101663.88
2023-10-05T01:28:30.205Z,101666.28
2023-10-05T01:32:34.039Z,101673.63
2023-10-05T01:36:35.964Z,101670.25
2023-10-05T01:40:37.401Z,101672.75
2023-10-05T01:44:41.554Z,101670.59
2023-10-05T01:48:43.894Z,101673.97
2023-10-05T01:52:57.034Z,101677.59
2023-10-05T01:57:02.429Z,101679.25
2023-10-05T02:01:04.899Z,101672.63
2023-10-05T02:05:08.175Z,101677.69
2023-10-05T02:09:15.159Z,101675.63
2023-10-05T02:13:17.913Z,101669.25
2023-10-05T02:17:20.384Z,101672.03
2023-10-05T02:21:31.028Z,101666.25
2023-10-05T02:25:35.107Z,101671.03
2023-10-05T02:29:41.049Z,101656.97
2023-10-05T02:33:44.246Z,101665.16
2023-10-05T02:37:49.910Z,101667.84
2023-10-05T02:41:57.439Z,101664.34
2023-10-05T02:46:11.065Z,101662.78
2023-10-05T02:50:12.998Z,101656.03
2023-10-05T02:54:15.462Z,101654.97
2023-10-05T02:58:17.520Z,101643.16
2023-10-05T03:02:19.482Z,101645.94
2023-10-05T03:06:23.812Z,101650.03
2023-10-05T03:10:25.562Z,101649.53
2023-10-05T03:14:28.423Z,101654.59
2023-10-05T03:18:29.748Z,101644.13
2023-10-05T03:22:31.118Z,101649.44
2023-10-05T03:26:32.520Z,101650.16
2023-10-05T03:30:36.616Z,101652.81
2023-10-05T03:34:38.330Z,101638.00
2023-10-05T03:38:40.764Z,101648.09
2023-10-05T03:42:43.300Z,101646.28
2023-10-05T03:46:48.149Z,101642.22
2023-10-05T03:50:49.525Z,101642.56
2023-10-05T03:54:50.946Z,101639.78
2023-10-05T03:58:53.709Z,101635.94
2023-10-05T04:02:55.546Z,101644.97
2023-10-05T04:06:59.509Z,101646.78
2023-10-05T04:11:00.916Z,101639.78
2023-10-05T04:15:02.632Z,101643.78
2023-10-05T04:19:05.855Z,101644.25
2023-10-05T04:23:08.535Z,101631.84
2023-10-05T04:27:11.788Z,101637.41
2023-10-05T04:31:15.286Z,101643.28
2023-10-05T04:35:23.867Z,101645.09
2023-10-05T04:39:30.800Z,101647.00
2023-10-05T04:43:32.274Z,101642.44
2023-10-05T04:47:34.260Z,101640.75
2023-10-05T04:51:39.502Z,101643.16
2023-10-05T04:55:46.109Z,101633.13
2023-10-05T04:59:59.997Z,101633.19
2023-10-05T05:04:28.307Z,101636.19
2023-10-05T05:08:31.327Z,101634.84
2023-10-05T05:12:32.811Z,101636.41
2023-10-05T05:16:34.764Z,101635.59
2023-10-05T05:20:36.183Z,101624.13
2023-10-05T05:24:38.563Z,101625.72
2023-10-05T05:28:40.226Z,101627.88
2023-10-05T05:32:45.155Z,101617.78
2023-10-05T05:36:46.575Z,101615.13
2023-10-05T05:40:50.512Z,101613.56
2023-10-05T05:44:53.614Z,101617.16
2023-10-05T05:48:55.015Z,101613.91
2023-10-05T05:52:57.850Z,101609.69
2023-10-05T05:56:59.266Z,101611.38
2023-10-05T06:01:01.070Z,101626.44
2023-10-05T06:05:02.861Z,101627.53
2023-10-05T06:09:08.424Z,101629.41
2023-10-05T06:13:13.414Z,101629.06
2023-10-05T06:17:14.860Z,101636.63
2023-10-05T06:21:16.661Z,101649.91
2023-10-05T06:25:18.905Z,101650.34
2023-10-05T06:29:20.280Z,101664.88
2023-10-05T06:33:21.858Z,101675.84
2023-10-05T06:37:23.243Z,101663.31
2023-10-05T06:41:24.607Z,101673.09
2023-10-05T06:45:26.050Z,101667.53
2023-10-05T06:49:28.476Z,101676.03
2023-10-05T06:53:29.904Z,101672.50
2023-10-05T06:57:31.284Z,101671.78
2023-10-05T07:01:36.065Z,101664.13
2023-10-05T07:05:37.722Z,101668.16
2023-10-05T07:09:39.171Z,101673.66
2023-10-05T07:13:40.542Z,101671.25
2023-10-05T07:17:42.571Z,101664.06
2023-10-05T07:21:44.070Z,101682.75
2023-10-05T07:25:45.579Z,101690.88
2023-10-05T07:29:47.118Z,101695.59
2023-10-05T07:33:48.771Z,101704.03
2023-10-05T07:37:50.131Z,101707.97
2023-10-05T07:41:51.540Z,101723.25
2023-10-05T07:45:52.934Z,101719.03
2023-10-05T07:49:55.148Z,101728.03
2023-10-05T07:53:56.567Z,101727.56
2023-10-05T07:57:58.342Z,101745.78
2023-10-05T08:01:59.873Z,101749.34
2023-10-05T08:06:02.497Z,101744.59
2023-10-05T08:10:04.433Z,101749.34
2023-10-05T08:14:05.974Z,101752.59
2023-10-05T08:18:07.598Z,101755.19
2023-10-05T08:22:10.189Z,101753.91
2023-10-05T08:26:11.784Z,101749.97
2023-10-05T08:30:13.688Z,101754.94
2023-10-05T08:34:24.034Z,101757.69
2023-10-05T08:38:25.642Z,101758.44
2023-10-05T08:42:28.943Z,101759.50
2023-10-05T08:46:33.635Z,101757.16
2023-10-05T08:50:36.291Z,101761.50
2023-10-05T08:54:39.343Z,101759.41
2023-10-05T08:58:48.680Z,101759.34
2023-10-05T09:02:51.207Z,101766.22
2023-10-05T09:06:56.384Z,101771.56
2023-10-05T09:11:00.421Z,101767.06
2023-10-05T09:15:20.452Z,101782.94
2023-10-05T09:19:30.895Z,101778.03
2023-10-05T09:23:32.721Z,101788.84
2023-10-05T09:27:52.973Z,101792.72
2023-10-05T09:31:59.245Z,101803.72
2023-10-05T09:36:17.488Z,101798.78
2023-10-05T09:40:19.206Z,101791.47
2023-10-05T09:44:23.229Z,101804.00
2023-10-05T09:48:25.944Z,101797.44
2023-10-05T09:52:35.971Z,101791.81
2023-10-05T09:56:44.648Z,101801.56
2023-10-05T10:00:46.735Z,101824.75
2023-10-05T10:04:49.094Z,101823.38
2023-10-05T10:08:55.120Z,101824.75
2023-10-05T10:12:57.297Z,101822.06
2023-10-05T10:17:02.305Z,101826.47
2023-10-05T10:21:09.652Z,101822.47
2023-10-05T10:25:31.573Z,101825.56
2023-10-05T10:29:46.010Z,101818.00
2023-10-05T10:33:56.326Z,101809.91
2023-10-05T10:38:00.250Z,101805.19
2023-10-05T10:42:07.299Z,101805.69
2023-10-05T10:46:15.664Z,101799.41
2023-10-05T10:50:23.458Z,101797.84
2023-10-05T10:54:25.518Z,101797.75
2023-10-05T10:58:31.573Z,101799.56
2023-10-05T11:02:39.616Z,101795.66
2023-10-05T11:06:41.936Z,101796.31
2023-10-05T11:10:44.001Z,101790.81
2023-10-05T11:14:46.476Z,101805.47
2023-10-05T11:19:07.617Z,101793.34
2023-10-05T11:23:13.942Z,101788.22
2023-10-05T11:27:17.056Z,101798.38
2023-10-05T11:31:59.109Z,101779.66
2023-10-05T11:35:50.818Z,101781.97
2023-10-05T11:40:00.083Z,101775.59
2023-10-05T11:44:03.869Z,101774.56
2023-10-05T11:48:13.651Z,101773.50
2023-10-05T11:52:17.910Z,101759.09
2023-10-05T11:56:19.487Z,101760.59
2023-10-05T12:00:21.276Z,101760.47
2023-10-05T12:04:25.073Z,101767.13
2023-10-05T12:08:26.583Z,101762.53
2023-10-05T12:12:27.936Z,101781.47
2023-10-05T12:16:34.254Z,101774.00
2023-10-05T12:20:35.941Z,101765.31
2023-10-05T12:24:38.627Z,101769.84
2023-10-05T12:28:42.276Z,101762.84
2023-10-05T12:32:43.694Z,101767.91
2023-10-05T12:36:49.917Z,101762.59
2023-10-05T12:40:51.356Z,101773.41
2023-10-05T12:44:52.752Z,101773.53
2023-10-05T12:48:54.169Z,101767.47
2023-10-05T12:52:57.224Z,101769.13
2023-10-05T12:57:17.755Z,101774.56
2023-10-05T13:01:21.424Z,101768.59
2023-10-05T13:05:31.684Z,101773.56
2023-10-05T13:09:36.202Z,101778.81
2023-10-05T13:13:37.737Z,101776.06
2023-10-05T13:17:39.728Z,101783.00
2023-10-05T13:21:43.840Z,101774.69
2023-10-05T13:25:45.704Z,101775.50
2023-10-05T13:29:50.098Z,101779.81
2023-10-05T13:33:55.816Z,101782.88
2023-10-05T13:37:59.071Z,101785.38
2023-10-05T13:42:10.745Z,101779.06
2023-10-05T13:46:20.304Z,101772.66
2023-10-05T13:50:23.431Z,101772.88
2023-10-05T13:54:24.841Z,101769.31
2023-10-05T13:58:26.227Z,101761.78
2023-10-05T14:02:28.278Z,101770.03
2023-10-05T14:06:30.673Z,101767.91
2023-10-05T14:10:32.320Z,101768.22
2023-10-05T14:14:33.786Z,101764.19
2023-10-05T14:18:35.242Z,101771.88
2023-10-05T14:22:36.722Z,101773.34
2023-10-05T14:26:38.268Z,101764.91
2023-10-05T14:30:41.375Z,101753.94
2023-10-05T14:34:43.282Z,101758.69
2023-10-05T14:38:44.723Z,101751.72
2023-10-05T14:42:48.725Z,101759.88
2023-10-05T14:46:53.206Z,101752.94
2023-10-05T14:50:54.614Z,101753.94
2023-10-05T14:54:56.040Z,101750.19
2023-10-05T14:58:57.934Z,101747.53
2023-10-05T15:03:00.623Z,101747.00
2023-10-05T15:07:02.059Z,101747.72
2023-10-05T15:11:06.927Z,101759.75
2023-10-05T15:15:11.074Z,101755.44
2023-10-05T15:19:12.507Z,101754.16
2023-10-05T15:23:14.434Z,101758.66
2023-10-05T15:27:16.678Z,101761.78
2023-10-05T15:31:19.364Z,101757.00
2023-10-05T15:35:21.317Z,101765.75
2023-10-05T15:39:22.660Z,101758.50
2023-10-05T15:43:24.654Z,101753.16
2023-10-05T15:47:29.558Z,101755.72
2023-10-05T15:51:32.352Z,101749.88
2023-10-05T15:55:34.689Z,101758.84
2023-10-05T15:59:36.124Z,101757.16
2023-10-05T16:03:37.595Z,101746.06
2023-10-05T16:07:40.460Z,101766.59
2023-10-05T16:11:42.335Z,101764.31
2023-10-05T16:15:43.652Z,101754.22
2023-10-05T16:19:45.179Z,101756.19
2023-10-05T16:23:46.537Z,101765.16
2023-10-05T16:27:49.413Z,101758.16
2023-10-05T16:31:52.958Z,101754.38
2023-10-05T16:35:55.632Z,101757.56
2023-10-05T16:39:59.945Z,101755.63
2023-10-05T16:44:01.338Z,101765.03
2023-10-05T16:48:02.763Z,101772.56
2023-10-05T16:52:04.338Z,101774.59
2023-10-05T16:56:05.720Z,101777.25
2023-10-05T17:00:23.809Z,101777.91
2023-10-05T17:04:25.440Z,101789.59
2023-10-05T17:08:28.342Z,101792.41
2023-10-05T17:12:29.809Z,101797.94
2023-10-05T17:16:31.290Z,101798.72
2023-10-05T17:20:33.380Z,101807.34
2023-10-05T17:24:34.857Z,101800.75
2023-10-05T17:28:36.206Z,101809.69
2023-10-05T17:32:39.626Z,101808.47
2023-10-05T17:36:41.890Z,101811.34
2023-10-05T17:40:56.661Z,101806.03
2023-10-05T17:44:58.221Z,101814.34
2023-10-05T17:49:00.311Z,101807.78
2023-10-05T17:53:01.711Z,101817.50
2023-10-05T17:57:05.361Z,101817.66
2023-10-05T18:01:06.718Z,101817.59
2023-10-05T18:05:10.442Z,101821.25
2023-10-05T18:09:12.281Z,101816.75
2023-10-05T18:13:13.638Z,101807.78
2023-10-05T18:17:16.200Z,101809.50
2023-10-05T18:21:18.343Z,101817.06
2023-10-05T18:25:21.885Z,101814.69
2023-10-05T18:29:23.273Z,101811.56
2023-10-05T18:33:24.751Z,101818.88
2023-10-05T18:37:28.006Z,101818.69
2023-10-05T18:41:29.586Z,101823.78
2023-10-05T18:45:31.212Z,101824.25
2023-10-05T18:49:32.846Z,101815.81
2023-10-05T18:53:38.523Z,101819.47
2023-10-05T18:57:40.378Z,101819.72
2023-10-05T19:01:42.646Z,101816.94
2023-10-05T19:05:44.122Z,101823.16
2023-10-05T19:09:45.491Z,101824.31
2023-10-05T19:13:47.040Z,101817.34
2023-10-05T19:17:48.469Z,101815.09
2023-10-05T19:21:49.931Z,101812.13
2023-10-05T19:25:59.456Z,101813.34
2023-10-05T19:30:01.294Z,101815.84
2023-10-05T19:34:02.618Z,101838.72
2023-10-05T19:38:04.089Z,101832.44
2023-10-05T19:42:07.389Z,101826.19
2023-10-05T19:46:08.785Z,101833.91
2023-10-05T19:50:11.576Z,101839.44
2023-10-05T19:54:15.049Z,101836.25
2023-10-05T19:58:19.163Z,101854.34
2023-10-05T20:02:20.787Z,101860.00
2023-10-05T20:06:22.209Z,101859.28
2023-10-05T20:10:29.363Z,101850.38
2023-10-05T20:14:31.040Z,101848.69
2023-10-05T20:18:37.516Z,101859.06
2023-10-05T20:22:39.950Z,101856.44
2023-10-05T20:26:41.489Z,101855.59
2023-10-05T20:30:42.912Z,101845.72
2023-10-05T20:34:57.545Z,101845.81
2023-10-05T20:38:58.953Z,101858.00
2023-10-05T20:43:00.730Z,101847.66
2023-10-05T20:47:02.240Z,101839.69
2023-10-05T20:51:06.988Z,101850.53
2023-10-05T20:55:08.956Z,101845.56
2023-10-05T20:59:10.294Z,101845.47
2023-10-05T21:03:14.719Z,101844.84
2023-10-05T21:07:16.339Z,101853.91
2023-10-05T21:11:20.903Z,101858.25
2023-10-05T21:15:23.458Z,101855.19
2023-10-05T21:19:24.841Z,101852.19
2023-10-05T21:23:26.288Z,101859.16
2023-10-05T21:27:28.490Z,101860.94
2023-10-05T21:31:29.864Z,101865.50
2023-10-05T21:35:31.233Z,101869.47
2023-10-05T21:39:33.675Z,101877.06
2023-10-05T21:43:35.085Z,101874.88
2023-10-05T21:47:36.504Z,101876.53
2023-10-05T21:51:37.847Z,101884.75
2023-10-05T21:55:39.333Z,101881.19
2023-10-05T21:59:40.664Z,101869.88
2023-10-05T22:03:42.261Z,101876.16
2023-10-05T22:07:45.967Z,101868.88
2023-10-05T22:11:47.423Z,101860.63
2023-10-05T22:15:50.266Z,101852.59
2023-10-05T22:19:51.666Z,101854.78
2023-10-05T22:23:53.012Z,101851.75
2023-10-05T22:27:54.514Z,101857.97
2023-10-05T22:31:55.907Z,101841.06
2023-10-05T22:35:57.701Z,101849.41
2023-10-05T22:39:59.042Z,101845.53
2023-10-05T22:44:00.412Z,101849.06
2023-10-05T22:48:02.106Z,101833.88
2023-10-05T22:52:03.796Z,101831.19
2023-10-05T22:56:05.309Z,101836.47
2023-10-05T23:00:07.294Z,101833.75
2023-10-05T23:04:08.957Z,101836.34
2023-10-05T23:08:12.651Z,101833.22
2023-10-05T23:12:14.676Z,101835.72
2023-10-05T23:16:18.763Z,101832.63
2023-10-05T23:20:26.167Z,101841.97
2023-10-05T23:24:28.455Z,101838.63
2023-10-05T23:28:29.829Z,101847.03
2023-10-05T23:32:31.367Z,101852.00
2023-10-05T23:36:34.707Z,101852.19
2023-10-05T23:40:37.116Z,101857.72
2023-10-05T23:44:39.923Z,101861.94
2023-10-05T23:48:41.688Z,101867.28
2023-10-05T23:52:45.363Z,101863.22
2023-10-05T23:56:46.791Z,101862.41
